createdAt,value
2022-12-14T00:03:48.456Z,1.90
2022-12-14T00:08:52.360Z,1.90
2022-12-14T00:13:59.832Z,2.00
2022-12-14T00:19:02.219Z,2.00
2022-12-14T00:24:04.511Z,2.00
2022-12-14T00:29:07.192Z,2.00
2022-12-14T00:34:09.601Z,2.00
2022-12-14T00:39:11.755Z,2.00
2022-12-14T00:44:14.179Z,2.00
2022-12-14T00:49:16.415Z,1.80
2022-12-14T00:54:18.615Z,1.80
2022-12-14T00:59:25.666Z,1.80
2022-12-14T01:04:31.780Z,1.70
2022-12-14T01:09:33.966Z,1.70
2022-12-14T01:14:36.949Z,1.70
2022-12-14T01:19:39.064Z,1.50
2022-12-14T01:24:43.563Z,1.50
2022-12-14T01:29:46.715Z,1.40
2022-12-14T01:34:49.781Z,1.40
2022-12-14T01:39:51.875Z,1.40
2022-12-14T01:44:56.849Z,1.40
2022-12-14T01:50:33.503Z,1.40
2022-12-14T01:55:41.205Z,1.50
2022-12-14T02:00:44.480Z,1.50
2022-12-14T02:05:57.097Z,1.50
2022-12-14T02:11:02.463Z,1.40
2022-12-14T02:16:05.382Z,1.50
2022-12-14T02:21:22.958Z,1.40
2022-12-14T02:27:02.999Z,1.50
2022-12-14T02:32:29.642Z,1.40
2022-12-14T02:37:57.224Z,1.50
2022-12-14T02:43:05.935Z,1.50
2022-12-14T02:48:17.295Z,1.50
2022-12-14T02:53:43.093Z,1.50
2022-12-14T02:58:51.139Z,1.50
2022-12-14T03:03:53.435Z,1.50
2022-12-14T03:09:04.943Z,1.50
2022-12-14T03:14:15.139Z,1.50
2022-12-14T03:19:33.877Z,1.60
2022-12-14T03:24:43.659Z,1.70
2022-12-14T03:29:51.856Z,1.60
2022-12-14T03:35:09.110Z,1.70
2022-12-14T03:40:14.190Z,1.70
2022-12-14T03:45:31.448Z,1.80
2022-12-14T03:50:39.790Z,1.80
2022-12-14T03:56:02.920Z,1.80
2022-12-14T04:01:32.232Z,1.80
2022-12-14T04:06:59.370Z,1.90
2022-12-14T04:12:58.082Z,1.90
2022-12-14T04:18:23.481Z,1.90
2022-12-14T04:23:54.183Z,1.90
2022-12-14T04:29:19.862Z,2.00
2022-12-14T04:34:26.078Z,2.00
2022-12-14T04:39:47.554Z,2.10
2022-12-14T04:44:54.424Z,2.10
2022-12-14T04:50:15.387Z,2.10
2022-12-14T04:55:39.047Z,2.10
2022-12-14T05:01:04.316Z,2.20
2022-12-14T05:06:13.514Z,2.20
2022-12-14T05:11:52.539Z,2.30
2022-12-14T05:16:52.869Z,2.20
2022-12-14T05:21:56.164Z,2.30
2022-12-14T05:26:58.301Z,2.30
2022-12-14T05:32:01.191Z,2.30
2022-12-14T05:37:04.046Z,2.40
2022-12-14T05:42:06.212Z,2.40
2022-12-14T05:47:08.458Z,2.40
2022-12-14T05:52:10.559Z,2.40
2022-12-14T05:57:13.137Z,2.50
2022-12-14T06:02:15.340Z,2.50
2022-12-14T06:07:18.456Z,2.50
2022-12-14T06:12:22.903Z,2.50
2022-12-14T06:17:24.986Z,2.60
2022-12-14T06:22:27.051Z,2.60
2022-12-14T06:27:29.294Z,2.60
2022-12-14T06:32:31.376Z,2.60
2022-12-14T06:37:33.552Z,2.60
2022-12-14T06:42:35.681Z,2.60
2022-12-14T06:47:38.010Z,2.70
2022-12-14T06:52:40.685Z,2.70
2022-12-14T06:57:42.839Z,2.70
2022-12-14T07:02:45.201Z,2.80
2022-12-14T07:07:47.554Z,2.80
2022-12-14T07:12:51.198Z,2.80
2022-12-14T07:17:53.391Z,2.80
2022-12-14T07:22:55.548Z,2.80
2022-12-14T07:27:57.658Z,2.80
2022-12-14T07:32:59.790Z,2.90
2022-12-14T07:38:01.953Z,2.80
2022-12-14T07:43:04.114Z,2.80
2022-12-14T07:48:07.368Z,2.80
2022-12-14T07:53:09.458Z,2.80
2022-12-14T07:58:12.041Z,2.80
2022-12-14T08:03:15.093Z,2.80
2022-12-14T08:08:17.151Z,2.80
2022-12-14T08:13:19.231Z,2.80
2022-12-14T08:18:21.427Z,2.80
2022-12-14T08:23:23.555Z,2.80
2022-12-14T08:28:27.823Z,2.80
2022-12-14T08:33:32.751Z,2.80
2022-12-14T08:38:35.458Z,2.80
2022-12-14T08:43:38.180Z,2.90
2022-12-14T08:48:40.294Z,2.90
2022-12-14T08:53:42.335Z,2.90
2022-12-14T08:58:45.069Z,3.00
2022-12-14T09:03:48.816Z,3.00
2022-12-14T09:08:51.338Z,2.90
2022-12-14T09:13:54.617Z,2.90
2022-12-14T09:18:56.828Z,3.00
2022-12-14T09:24:00.043Z,2.90
2022-12-14T09:29:02.304Z,2.90
2022-12-14T09:34:04.559Z,2.90
2022-12-14T09:39:07.301Z,2.90
2022-12-14T09:44:51.028Z,3.00
2022-12-14T09:50:02.644Z,3.00
2022-12-14T09:55:28.978Z,3.00
2022-12-14T10:00:52.966Z,3.00
2022-12-14T10:06:13.426Z,3.10
2022-12-14T10:11:42.801Z,3.20
2022-12-14T10:17:12.227Z,3.30
2022-12-14T10:22:18.631Z,3.30
2022-12-14T10:27:26.503Z,3.40
2022-12-14T10:32:37.770Z,3.40
2022-12-14T10:37:44.044Z,3.40
2022-12-14T10:43:24.861Z,3.40
2022-12-14T10:48:32.869Z,3.30
2022-12-14T10:53:41.834Z,3.40
2022-12-14T10:58:44.345Z,3.40
2022-12-14T11:03:49.507Z,3.40
2022-12-14T11:08:51.649Z,3.40
2022-12-14T11:14:05.981Z,3.40
2022-12-14T11:19:19.779Z,3.50
2022-12-14T11:24:27.460Z,3.60
2022-12-14T11:29:33.633Z,3.60
2022-12-14T11:34:42.530Z,3.70
2022-12-14T11:39:50.968Z,3.90
2022-12-14T11:44:53.237Z,3.90
2022-12-14T11:49:57.884Z,3.90
2022-12-14T11:55:00.195Z,3.80
2022-12-14T12:00:21.690Z,3.80
2022-12-14T12:05:24.085Z,3.70
2022-12-14T12:10:37.407Z,3.60
2022-12-14T12:15:50.812Z,3.60
2022-12-14T12:20:55.425Z,3.60
2022-12-14T12:26:00.271Z,3.50
2022-12-14T12:31:12.711Z,3.50
2022-12-14T12:36:23.503Z,3.50
2022-12-14T12:41:32.226Z,3.50
2022-12-14T12:47:14.883Z,3.50
2022-12-14T12:52:26.078Z,3.50
2022-12-14T12:57:57.074Z,3.50
2022-12-14T13:03:18.540Z,3.60
2022-12-14T13:08:32.112Z,3.60
2022-12-14T13:13:37.622Z,3.50
2022-12-14T13:19:01.969Z,3.50
2022-12-14T13:24:18.212Z,3.60
2022-12-14T13:29:54.601Z,3.60
2022-12-14T13:35:22.538Z,3.60
2022-12-14T13:40:27.618Z,3.60
2022-12-14T13:45:43.385Z,3.60
2022-12-14T13:50:54.202Z,3.60
2022-12-14T13:56:04.627Z,3.60
2022-12-14T14:01:09.876Z,3.50
2022-12-14T14:06:12.017Z,3.50
2022-12-14T14:11:38.961Z,3.50
2022-12-14T14:16:50.005Z,3.50
2022-12-14T14:22:26.390Z,3.50
2022-12-14T14:27:30.090Z,3.60
2022-12-14T14:32:40.782Z,3.50
2022-12-14T14:38:07.439Z,3.60
2022-12-14T14:43:30.249Z,3.50
2022-12-14T14:48:54.147Z,3.50
2022-12-14T14:59:50.628Z,3.40
2022-12-14T15:04:57.092Z,3.50
2022-12-14T15:10:19.022Z,3.50
2022-12-14T15:15:36.963Z,3.50
2022-12-14T15:20:40.935Z,3.50
2022-12-14T15:25:43.767Z,3.50
2022-12-14T15:30:48.962Z,3.50
2022-12-14T15:35:51.771Z,3.40
2022-12-14T15:40:59.416Z,3.40
2022-12-14T15:46:03.405Z,3.40
2022-12-14T15:51:11.094Z,3.40
2022-12-14T15:56:32.774Z,3.40
2022-12-14T16:01:38.796Z,3.40
2022-12-14T16:06:44.384Z,3.30
2022-12-14T16:11:59.712Z,3.30
2022-12-14T16:17:03.249Z,3.30
2022-12-14T16:22:20.003Z,3.30
2022-12-14T16:27:22.842Z,3.30
2022-12-14T16:32:25.103Z,3.30
2022-12-14T16:37:34.878Z,3.30
2022-12-14T16:42:37.223Z,3.30
2022-12-14T16:47:49.353Z,3.30
2022-12-14T16:53:15.163Z,3.20
2022-12-14T16:58:18.458Z,3.20
2022-12-14T17:03:25.738Z,3.20
2022-12-14T17:08:28.789Z,3.20
2022-12-14T17:13:31.136Z,3.20
2022-12-14T17:18:39.099Z,3.20
2022-12-14T17:23:43.158Z,3.20
2022-12-14T17:28:45.296Z,3.20
2022-12-14T17:33:52.249Z,3.10
2022-12-14T17:38:54.395Z,3.20
2022-12-14T17:43:57.671Z,3.10
2022-12-14T17:49:04.705Z,3.10
2022-12-14T17:54:21.547Z,3.00
2022-12-14T17:59:28.112Z,3.00
2022-12-14T18:04:30.441Z,2.90
2022-12-14T18:09:32.651Z,2.80
2022-12-14T18:14:34.870Z,2.80
2022-12-14T18:19:37.120Z,2.70
2022-12-14T18:24:39.282Z,2.60
2022-12-14T18:29:41.440Z,2.60
2022-12-14T18:34:43.870Z,2.50
2022-12-14T18:39:46.222Z,2.50
2022-12-14T18:44:52.188Z,2.40
2022-12-14T18:49:54.393Z,2.30
2022-12-14T18:54:56.941Z,2.30
2022-12-14T18:59:59.512Z,2.20
2022-12-14T19:05:01.924Z,2.20
2022-12-14T19:10:04.924Z,2.20
2022-12-14T19:15:08.166Z,2.20
2022-12-14T19:20:15.941Z,2.20
2022-12-14T19:25:20.249Z,2.10
2022-12-14T19:30:23.491Z,2.10
2022-12-14T19:35:26.223Z,2.10
2022-12-14T19:40:28.500Z,2.10
2022-12-14T19:45:30.887Z,2.10
2022-12-14T19:50:33.255Z,2.00
2022-12-14T19:55:35.817Z,2.00
2022-12-14T20:00:38.690Z,2.00
2022-12-14T20:05:40.845Z,1.90
2022-12-14T20:10:43.056Z,1.90
2022-12-14T20:15:53.236Z,1.90
2022-12-14T20:21:06.652Z,1.90
2022-12-14T20:26:15.291Z,1.90
2022-12-14T20:31:18.306Z,1.90
2022-12-14T20:36:22.281Z,1.80
2022-12-14T20:41:25.432Z,1.80
2022-12-14T20:46:37.881Z,1.90
2022-12-14T20:51:41.065Z,1.80
2022-12-14T20:56:44.140Z,1.80
2022-12-14T21:01:50.215Z,1.80
2022-12-14T21:06:55.919Z,1.80
2022-12-14T21:12:16.748Z,1.80
2022-12-14T21:17:21.364Z,1.80
2022-12-14T21:22:26.366Z,1.90
2022-12-14T21:27:30.479Z,1.90
2022-12-14T21:32:35.302Z,1.90
2022-12-14T21:37:38.910Z,1.90
2022-12-14T21:42:41.039Z,2.00
2022-12-14T21:47:43.180Z,2.00
2022-12-14T21:52:45.339Z,2.10
2022-12-14T21:58:06.011Z,2.10
2022-12-14T22:03:08.333Z,2.10
2022-12-14T22:08:10.530Z,2.20
2022-12-14T22:13:12.679Z,2.20
2022-12-14T22:18:15.333Z,2.30
2022-12-14T22:23:17.447Z,2.30
2022-12-14T22:28:19.679Z,2.40
2022-12-14T22:33:21.841Z,2.40
2022-12-14T22:38:24.592Z,2.50
2022-12-14T22:43:30.641Z,2.50
2022-12-14T22:48:37.461Z,2.60
2022-12-14T22:53:39.672Z,2.60
2022-12-14T22:58:44.784Z,2.60
2022-12-14T23:03:53.085Z,2.60
2022-12-14T23:09:14.074Z,2.60
2022-12-14T23:14:34.609Z,2.60
2022-12-14T23:19:57.632Z,2.50
2022-12-14T23:25:22.094Z,2.50
2022-12-14T23:30:42.913Z,2.50
2022-12-14T23:36:03.636Z,2.50
2022-12-14T23:41:24.511Z,2.50
2022-12-14T23:46:45.495Z,2.60
2022-12-14T23:52:06.113Z,2.60
2022-12-14T23:57:27.076Z,2.50
